sensor_id;sensor_type;location;lat;lon;timestamp;pressure;altitude;pressure_sealevel;temperature;humidity
24013;BME280;12220;50.194;18.948;2023-02-15T00:01:55;103650.30;;;4.73;73.02
24013;BME280;12220;50.194;18.948;2023-02-15T00:04:21;103645.75;;;4.68;73.21
24013;BME280;12220;50.194;18.948;2023-02-15T00:06:36;103643.04;;;4.67;73.22
24013;BME280;12220;50.194;18.948;2023-02-15T00:08:46;103639.43;;;4.63;73.22
24013;BME280;12220;50.194;18.948;2023-02-15T00:13:20;103643.93;;;4.60;73.41
24013;BME280;12220;50.194;18.948;2023-02-15T00:15:35;103633.96;;;4.59;73.46
24013;BME280;12220;50.194;18.948;2023-02-15T00:17:36;103637.61;;;4.58;73.51
24013;BME280;12220;50.194;18.948;2023-02-15T00:19:47;103635.79;;;4.57;73.43
24013;BME280;12220;50.194;18.948;2023-02-15T00:21:52;103626.76;;;4.54;73.44
24013;BME280;12220;50.194;18.948;2023-02-15T00:23:58;103626.76;;;4.51;73.50
24013;BME280;12220;50.194;18.948;2023-02-15T00:26:12;103616.80;;;4.52;73.62
24013;BME280;12220;50.194;18.948;2023-02-15T00:28:19;103632.18;;;4.51;73.67
24013;BME280;12220;50.194;18.948;2023-02-15T00:30:25;103627.65;;;4.52;73.62
24013;BME280;12220;50.194;18.948;2023-02-15T00:32:33;103624.94;;;4.52;73.61
24013;BME280;12220;50.194;18.948;2023-02-15T00:34:41;103626.76;;;4.53;73.54
24013;BME280;12220;50.194;18.948;2023-02-15T00:36:54;103623.11;;;4.52;73.62
24013;BME280;12220;50.194;18.948;2023-02-15T00:38:56;103621.33;;;4.51;73.65
24013;BME280;12220;50.194;18.948;2023-02-15T00:41:05;103611.37;;;4.53;73.69
24013;BME280;12220;50.194;18.948;2023-02-15T00:43:11;103608.64;;;4.53;73.66
24013;BME280;12220;50.194;18.948;2023-02-15T00:45:12;103603.22;;;4.53;73.64
24013;BME280;12220;50.194;18.948;2023-02-15T00:47:20;103595.08;;;4.53;73.67
24013;BME280;12220;50.194;18.948;2023-02-15T00:49:31;103597.79;;;4.53;73.62
24013;BME280;12220;50.194;18.948;2023-02-15T00:51:40;103589.65;;;4.52;73.62
24013;BME280;12220;50.194;18.948;2023-02-15T00:53:46;103593.27;;;4.51;73.55
24013;BME280;12220;50.194;18.948;2023-02-15T00:55:58;103591.43;;;4.48;73.56
24013;BME280;12220;50.194;18.948;2023-02-15T00:58:02;103590.55;;;4.46;73.51
24013;BME280;12220;50.194;18.948;2023-02-15T01:00:07;103588.72;;;4.45;73.56
24013;BME280;12220;50.194;18.948;2023-02-15T01:02:10;103591.43;;;4.45;73.57
24013;BME280;12220;50.194;18.948;2023-02-15T01:04:18;103589.65;;;4.44;73.57
24013;BME280;12220;50.194;18.948;2023-02-15T01:06:33;103586.94;;;4.43;73.63
24013;BME280;12220;50.194;18.948;2023-02-15T01:08:38;103596.86;;;4.42;73.63
24013;BME280;12220;50.194;18.948;2023-02-15T01:10:46;103599.57;;;4.42;73.57
24013;BME280;12220;50.194;18.948;2023-02-15T01:12:53;103592.34;;;4.41;73.62
24013;BME280;12220;50.194;18.948;2023-02-15T01:15:03;103597.75;;;4.41;73.70
24013;BME280;12220;50.194;18.948;2023-02-15T01:17:11;103596.86;;;4.42;73.66
24013;BME280;12220;50.194;18.948;2023-02-15T01:19:14;103593.27;;;4.42;73.60
24013;BME280;12220;50.194;18.948;2023-02-15T01:21:32;103588.72;;;4.39;73.54
24013;BME280;12220;50.194;18.948;2023-02-15T01:23:40;103587.83;;;4.37;73.52
24013;BME280;12220;50.194;18.948;2023-02-15T01:25:53;103582.41;;;4.34;73.59
24013;BME280;12220;50.194;18.948;2023-02-15T01:28:06;103583.29;;;4.31;73.60
24013;BME280;12220;50.194;18.948;2023-02-15T01:30:30;103577.87;;;4.28;73.61
24013;BME280;12220;50.194;18.948;2023-02-15T01:32:46;103580.58;;;4.27;73.69
24013;BME280;12220;50.194;18.948;2023-02-15T01:34:53;103571.52;;;4.26;73.79
24013;BME280;12220;50.194;18.948;2023-02-15T01:36:56;103565.20;;;4.29;73.87
24013;BME280;12220;50.194;18.948;2023-02-15T01:39:01;103564.30;;;4.30;73.86
24013;BME280;12220;50.194;18.948;2023-02-15T01:41:03;103557.95;;;4.32;73.89
24013;BME280;12220;50.194;18.948;2023-02-15T01:45:47;103553.45;;;4.36;73.77
24013;BME280;12220;50.194;18.948;2023-02-15T01:47:58;103560.70;;;4.37;73.74
24013;BME280;12220;50.194;18.948;2023-02-15T01:50:50;103554.34;;;4.38;73.74
24013;BME280;12220;50.194;18.948;2023-02-15T01:52:21;103550.74;;;4.39;73.69
24013;BME280;12220;50.194;18.948;2023-02-15T01:54:34;103548.02;;;4.39;73.69
24013;BME280;12220;50.194;18.948;2023-02-15T01:56:43;103538.99;;;4.40;73.70
24013;BME280;12220;50.194;18.948;2023-02-15T01:58:59;103543.49;;;4.40;73.59
24013;BME280;12220;50.194;18.948;2023-02-15T02:01:15;103544.41;;;4.35;73.52
24013;BME280;12220;50.194;18.948;2023-02-15T02:05:57;103540.78;;;4.33;73.63
24013;BME280;12220;50.194;18.948;2023-02-15T02:08:10;103538.06;;;4.33;73.65
24013;BME280;12220;50.194;18.948;2023-02-15T02:10:27;103544.41;;;4.34;73.60
24013;BME280;12220;50.194;18.948;2023-02-15T02:12:43;103534.46;;;4.34;73.60
24013;BME280;12220;50.194;18.948;2023-02-15T02:14:52;103525.43;;;4.34;73.57
24013;BME280;12220;50.194;18.948;2023-02-15T02:19:40;103518.19;;;4.31;73.46
24013;BME280;12220;50.194;18.948;2023-02-15T02:24:28;103510.05;;;4.28;73.42
24013;BME280;12220;50.194;18.948;2023-02-15T03:00:05;103478.38;;;4.35;73.14
24013;BME280;12220;50.194;18.948;2023-02-15T03:02:28;103474.77;;;4.34;73.08
24013;BME280;12220;50.194;18.948;2023-02-15T03:04:45;103492.88;;;4.34;73.09
24013;BME280;12220;50.194;18.948;2023-02-15T03:07:22;103474.78;;;4.33;73.10
24013;BME280;12220;50.194;18.948;2023-02-15T03:09:36;103479.27;;;4.32;73.09
24013;BME280;12220;50.194;18.948;2023-02-15T03:11:54;103470.24;;;4.33;73.03
24013;BME280;12220;50.194;18.948;2023-02-15T03:14:04;103467.53;;;4.30;72.87
24013;BME280;12220;50.194;18.948;2023-02-15T03:16:12;103461.23;;;4.25;72.77
24013;BME280;12220;50.194;18.948;2023-02-15T03:18:44;103464.83;;;4.19;72.83
24013;BME280;12220;50.194;18.948;2023-02-15T03:21:12;103463.91;;;4.17;72.88
24013;BME280;12220;50.194;18.948;2023-02-15T03:23:27;103464.80;;;4.15;72.94
24013;BME280;12220;50.194;18.948;2023-02-15T03:25:40;103460.31;;;4.12;72.96
24013;BME280;12220;50.194;18.948;2023-02-15T03:27:54;103469.34;;;4.11;73.00
24013;BME280;12220;50.194;18.948;2023-02-15T03:29:59;103457.59;;;4.09;72.96
24013;BME280;12220;50.194;18.948;2023-02-15T03:32:12;103472.95;;;4.06;72.95
24013;BME280;12220;50.194;18.948;2023-02-15T03:34:18;103460.28;;;4.03;72.97
24013;BME280;12220;50.194;18.948;2023-02-15T03:41:07;103467.53;;;3.98;73.05
24013;BME280;12220;50.194;18.948;2023-02-15T03:45:46;103470.24;;;3.95;73.16
24013;BME280;12220;50.194;18.948;2023-02-15T03:48:10;103476.55;;;3.94;73.19
24013;BME280;12220;50.194;18.948;2023-02-15T03:50:24;103470.24;;;3.95;73.24
24013;BME280;12220;50.194;18.948;2023-02-15T04:12:43;103483.75;;;3.86;73.38
24013;BME280;12220;50.194;18.948;2023-02-15T04:14:53;103472.02;;;3.83;73.44
24013;BME280;12220;50.194;18.948;2023-02-15T04:17:08;103481.97;;;3.86;73.52
24013;BME280;12220;50.194;18.948;2023-02-15T04:19:18;103484.68;;;3.89;73.56
24013;BME280;12220;50.194;18.948;2023-02-15T04:21:31;103480.15;;;3.90;73.56
24013;BME280;12220;50.194;18.948;2023-02-15T04:23:58;103472.91;;;3.89;73.54
24013;BME280;12220;50.194;18.948;2023-02-15T04:26:20;103478.34;;;3.89;73.55
24013;BME280;12220;50.194;18.948;2023-02-15T04:28:40;103472.91;;;3.89;73.58
24013;BME280;12220;50.194;18.948;2023-02-15T04:45:52;103475.63;;;3.89;73.57
24013;BME280;12220;50.194;18.948;2023-02-15T04:48:14;103475.63;;;3.86;73.57
24013;BME280;12220;50.194;18.948;2023-02-15T04:50:38;103473.84;;;3.83;73.59
24013;BME280;12220;50.194;18.948;2023-02-15T04:52:59;103473.84;;;3.83;73.66
24013;BME280;12220;50.194;18.948;2023-02-15T05:07:45;103470.20;;;3.86;73.62
24013;BME280;12220;50.194;18.948;2023-02-15T05:09:47;103467.49;;;3.82;73.68
24013;BME280;12220;50.194;18.948;2023-02-15T05:11:49;103469.31;;;3.82;73.70
24013;BME280;12220;50.194;18.948;2023-02-15T05:13:54;103476.54;;;3.83;73.79
24013;BME280;12220;50.194;18.948;2023-02-15T05:15:56;103477.44;;;3.82;73.80
24013;BME280;12220;50.194;18.948;2023-02-15T05:17:58;103477.44;;;3.82;73.82
24013;BME280;12220;50.194;18.948;2023-02-15T05:19:59;103485.57;;;3.82;73.83
24013;BME280;12220;50.194;18.948;2023-02-15T05:45:01;103475.63;;;3.79;74.00
24013;BME280;12220;50.194;18.948;2023-02-15T05:47:04;103479.23;;;3.80;74.00
24013;BME280;12220;50.194;18.948;2023-02-15T05:49:16;103468.38;;;3.78;73.98
24013;BME280;12220;50.194;18.948;2023-02-15T05:51:17;103468.38;;;3.80;74.04
24013;BME280;12220;50.194;18.948;2023-02-15T05:53:18;103475.63;;;3.81;74.09
24013;BME280;12220;50.194;18.948;2023-02-15T05:55:20;103474.72;;;3.80;74.03
24013;BME280;12220;50.194;18.948;2023-02-15T05:57:31;103473.79;;;3.80;74.03
24013;BME280;12220;50.194;18.948;2023-02-15T05:59:33;103477.43;;;3.79;74.10
24013;BME280;12220;50.194;18.948;2023-02-15T06:01:34;103477.43;;;3.79;74.12
24013;BME280;12220;50.194;18.948;2023-02-15T06:03:36;103477.43;;;3.79;74.12
24013;BME280;12220;50.194;18.948;2023-02-15T06:05:46;103476.52;;;3.78;74.14
24013;BME280;12220;50.194;18.948;2023-02-15T06:07:47;103480.14;;;3.77;74.16
24013;BME280;12220;50.194;18.948;2023-02-15T06:09:49;103482.86;;;3.77;74.24
24013;BME280;12220;50.194;18.948;2023-02-15T06:11:51;103475.63;;;3.78;74.26
24013;BME280;12220;50.194;18.948;2023-02-15T06:14:01;103471.08;;;3.78;74.26
24013;BME280;12220;50.194;18.948;2023-02-15T06:16:03;103477.43;;;3.79;74.32
24013;BME280;12220;50.194;18.948;2023-02-15T06:18:05;103478.34;;;3.79;74.32
24013;BME280;12220;50.194;18.948;2023-02-15T06:20:07;103472.02;;;3.79;74.29
24013;BME280;12220;50.194;18.948;2023-02-15T06:22:16;103478.34;;;3.78;74.29
24013;BME280;12220;50.194;18.948;2023-02-15T06:24:18;103478.34;;;3.76;74.34
24013;BME280;12220;50.194;18.948;2023-02-15T06:26:19;103480.14;;;3.77;74.38
24013;BME280;12220;50.194;18.948;2023-02-15T06:28:23;103484.63;;;3.77;74.42
24013;BME280;12220;50.194;18.948;2023-02-15T06:30:32;103488.28;;;3.77;74.44
24013;BME280;12220;50.194;18.948;2023-02-15T06:32:34;103489.17;;;3.78;74.47
24013;BME280;12220;50.194;18.948;2023-02-15T06:34:41;103482.86;;;3.79;74.52
24013;BME280;12220;50.194;18.948;2023-02-15T06:36:42;103490.06;;;3.80;74.54
24013;BME280;12220;50.194;18.948;2023-02-15T06:38:47;103491.00;;;3.83;74.60
24013;BME280;12220;50.194;18.948;2023-02-15T06:40:49;103485.57;;;3.85;74.59
24013;BME280;12220;50.194;18.948;2023-02-15T06:42:50;103489.17;;;3.86;74.55
24013;BME280;12220;50.194;18.948;2023-02-15T06:44:52;103484.68;;;3.88;74.51
24013;BME280;12220;50.194;18.948;2023-02-15T06:47:02;103483.75;;;3.86;74.48
24013;BME280;12220;50.194;18.948;2023-02-15T06:49:04;103487.41;;;3.84;74.52
24013;BME280;12220;50.194;18.948;2023-02-15T06:51:05;103483.75;;;3.86;74.56
24013;BME280;12220;50.194;18.948;2023-02-15T06:53:07;103481.97;;;3.84;74.57
24013;BME280;12220;50.194;18.948;2023-02-15T06:55:18;103475.63;;;3.87;74.51
24013;BME280;12220;50.194;18.948;2023-02-15T06:57:19;103478.34;;;3.86;74.63
24013;BME280;12220;50.194;18.948;2023-02-15T06:59:21;103481.97;;;3.88;74.60
24013;BME280;12220;50.194;18.948;2023-02-15T07:01:22;103477.44;;;3.85;74.62
24013;BME280;12220;50.194;18.948;2023-02-15T07:03:33;103477.44;;;3.83;74.68
24013;BME280;12220;50.194;18.948;2023-02-15T07:08:07;103485.57;;;3.83;74.76
24013;BME280;12220;50.194;18.948;2023-02-15T07:10:09;103472.91;;;3.82;74.82
24013;BME280;12220;50.194;18.948;2023-02-15T07:12:18;103476.52;;;3.81;74.79
24013;BME280;12220;50.194;18.948;2023-02-15T07:14:39;103471.08;;;3.81;74.84
24013;BME280;12220;50.194;18.948;2023-02-15T07:16:41;103472.91;;;3.82;74.89
24013;BME280;12220;50.194;18.948;2023-02-15T07:18:43;103481.97;;;3.83;74.92
24013;BME280;12220;50.194;18.948;2023-02-15T07:20:44;103480.14;;;3.83;74.96
24013;BME280;12220;50.194;18.948;2023-02-15T07:22:54;103481.05;;;3.87;74.97
24013;BME280;12220;50.194;18.948;2023-02-15T07:24:56;103477.44;;;3.88;75.01
24013;BME280;12220;50.194;18.948;2023-02-15T07:26:58;103474.73;;;3.90;75.04
24013;BME280;12220;50.194;18.948;2023-02-15T07:31:31;103473.84;;;3.92;75.01
24013;BME280;12220;50.194;18.948;2023-02-15T07:33:34;103466.60;;;3.93;75.00
24013;BME280;12220;50.194;18.948;2023-02-15T07:35:35;103469.31;;;3.93;75.04
24013;BME280;12220;50.194;18.948;2023-02-15T07:37:37;103470.24;;;3.93;75.06
24013;BME280;12220;50.194;18.948;2023-02-15T07:39:38;103466.60;;;3.94;75.09
24013;BME280;12220;50.194;18.948;2023-02-15T07:41:46;103474.73;;;3.96;75.07
24013;BME280;12220;50.194;18.948;2023-02-15T07:43:47;103472.02;;;3.97;75.07
24013;BME280;12220;50.194;18.948;2023-02-15T07:45:49;103472.95;;;3.98;75.05
24013;BME280;12220;50.194;18.948;2023-02-15T07:47:50;103475.66;;;3.99;75.06
24013;BME280;12220;50.194;18.948;2023-02-15T07:50:01;103459.39;;;4.03;75.06
24013;BME280;12220;50.194;18.948;2023-02-15T07:52:03;103461.20;;;4.04;75.07
24013;BME280;12220;50.194;18.948;2023-02-15T07:54:05;103453.95;;;4.06;75.02
24013;BME280;12220;50.194;18.948;2023-02-15T07:56:13;103453.08;;;4.08;75.03
24013;BME280;12220;50.194;18.948;2023-02-15T07:58:16;103458.50;;;4.11;75.04
24013;BME280;12220;50.194;18.948;2023-02-15T08:00:19;103453.95;;;4.13;75.03
24013;BME280;12220;50.194;18.948;2023-02-15T08:02:25;103455.77;;;4.16;75.01
24013;BME280;12220;50.194;18.948;2023-02-15T08:04:27;103454.88;;;4.18;75.00
24013;BME280;12220;50.194;18.948;2023-02-15T08:06:34;103461.20;;;4.21;74.94
24013;BME280;12220;50.194;18.948;2023-02-15T08:08:36;103455.77;;;4.21;74.87
24013;BME280;12220;50.194;18.948;2023-02-15T08:10:38;103455.77;;;4.22;74.87
24013;BME280;12220;50.194;18.948;2023-02-15T08:12:52;103449.45;;;4.25;74.88
24013;BME280;12220;50.194;18.948;2023-02-15T08:14:53;103446.73;;;4.28;74.91
24013;BME280;12220;50.194;18.948;2023-02-15T08:16:55;103447.64;;;4.33;74.97
24013;BME280;12220;50.194;18.948;2023-02-15T08:21:12;103443.10;;;4.38;74.92
24013;BME280;12220;50.194;18.948;2023-02-15T08:23:13;103447.63;;;4.42;74.89
24013;BME280;12220;50.194;18.948;2023-02-15T08:25:18;103443.13;;;4.44;74.78
24013;BME280;12220;50.194;18.948;2023-02-15T08:29:51;103438.59;;;4.46;74.58
24013;BME280;12220;50.194;18.948;2023-02-15T08:31:57;103441.28;;;4.49;74.57
24013;BME280;12220;50.194;18.948;2023-02-15T08:34:05;103445.83;;;4.50;74.52
24013;BME280;12220;50.194;18.948;2023-02-15T08:36:10;103440.39;;;4.52;74.51
24013;BME280;12220;50.194;18.948;2023-02-15T08:38:14;103433.13;;;4.56;74.53
24013;BME280;12220;50.194;18.948;2023-02-15T08:40:16;103426.80;;;4.58;74.50
24013;BME280;12220;50.194;18.948;2023-02-15T08:42:20;103430.43;;;4.63;74.43
24013;BME280;12220;50.194;18.948;2023-02-15T08:44:22;103424.06;;;4.66;74.42
24013;BME280;12220;50.194;18.948;2023-02-15T08:46:25;103424.98;;;4.69;74.36
24013;BME280;12220;50.194;18.948;2023-02-15T08:53:23;103369.83;;;4.55;74.13
24013;BME280;12220;50.194;18.948;2023-02-15T08:55:26;103422.23;;;4.85;74.10
24013;BME280;12220;50.194;18.948;2023-02-15T08:57:27;103419.49;;;4.88;74.04
24013;BME280;12220;50.194;18.948;2023-02-15T08:59:30;103416.77;;;4.91;73.89
24013;BME280;12220;50.194;18.948;2023-02-15T09:01:34;103409.51;;;4.92;73.77
24013;BME280;12220;50.194;18.948;2023-02-15T09:03:36;103413.13;;;4.97;73.83
24013;BME280;12220;50.194;18.948;2023-02-15T09:05:41;103409.47;;;5.01;73.88
24013;BME280;12220;50.194;18.948;2023-02-15T09:07:42;103411.27;;;5.03;73.80
24013;BME280;12220;50.194;18.948;2023-02-15T09:09:44;103411.26;;;5.08;73.69
24013;BME280;12220;50.194;18.948;2023-02-15T09:11:52;103407.62;;;5.12;73.62
24013;BME280;12220;50.194;18.948;2023-02-15T09:13:58;103405.81;;;5.14;73.39
24013;BME280;12220;50.194;18.948;2023-02-15T09:20:54;103402.10;;;5.31;73.28
24013;BME280;12220;50.194;18.948;2023-02-15T09:23:02;103406.60;;;5.36;73.22
24013;BME280;12220;50.194;18.948;2023-02-15T09:25:22;103405.66;;;5.42;73.18
24013;BME280;12220;50.194;18.948;2023-02-15T09:27:25;103395.66;;;5.47;73.13
24013;BME280;12220;50.194;18.948;2023-02-15T09:29:27;103391.11;;;5.52;73.02
24013;BME280;12220;50.194;18.948;2023-02-15T09:31:33;103397.40;;;5.57;72.87
24013;BME280;12220;50.194;18.948;2023-02-15T09:38:29;103379.17;;;5.72;72.51
24013;BME280;12220;50.194;18.948;2023-02-15T09:40:38;103370.97;;;5.78;72.63
24013;BME280;12220;50.194;18.948;2023-02-15T09:52:23;103362.52;;;6.17;72.04
24013;BME280;12220;50.194;18.948;2023-02-15T10:13:42;103343.79;;;6.73;70.42
24013;BME280;12220;50.194;18.948;2023-02-15T10:25:28;103332.55;;;6.96;69.63
24013;BME280;12220;50.194;18.948;2023-02-15T10:27:40;103329.78;;;7.02;69.10
24013;BME280;12220;50.194;18.948;2023-02-15T10:29:52;103285.59;;;6.78;68.91
24013;BME280;12220;50.194;18.948;2023-02-15T10:32:11;103325.20;;;7.04;68.81
24013;BME280;12220;50.194;18.948;2023-02-15T10:34:17;103324.26;;;7.07;68.76
24013;BME280;12220;50.194;18.948;2023-02-15T10:38:42;103098.02;;;5.90;68.82
24013;BME280;12220;50.194;18.948;2023-02-15T10:43:37;103312.17;;;7.25;68.46
24013;BME280;12220;50.194;18.948;2023-02-15T10:55:07;103306.51;;;7.40;68.25
24013;BME280;12220;50.194;18.948;2023-02-15T10:59:50;103300.07;;;7.44;67.87
24013;BME280;12220;50.194;18.948;2023-02-15T11:06:44;103313.61;;;7.50;67.59
24013;BME280;12220;50.194;18.948;2023-02-15T11:09:05;103282.66;;;7.53;67.54
24013;BME280;12220;50.194;18.948;2023-02-15T11:11:34;103279.86;;;7.58;67.37
24013;BME280;12220;50.194;18.948;2023-02-15T11:13:23;103278.92;;;7.60;67.41
24013;BME280;12220;50.194;18.948;2023-02-15T11:15:39;103273.38;;;7.65;67.09
24013;BME280;12220;50.194;18.948;2023-02-15T11:17:49;103265.17;;;7.66;66.84
24013;BME280;12220;50.194;18.948;2023-02-15T11:22:11;103265.92;;;7.76;66.75
24013;BME280;12220;50.194;18.948;2023-02-15T11:24:16;103256.69;;;7.82;66.57
24013;BME280;12220;50.194;18.948;2023-02-15T11:26:30;103257.46;;;7.90;66.66
24013;BME280;12220;50.194;18.948;2023-02-15T11:30:55;103259.88;;;8.07;66.72
24013;BME280;12220;50.194;18.948;2023-02-15T11:33:12;103257.02;;;8.13;66.36
24013;BME280;12220;50.194;18.948;2023-02-15T11:35:28;103261.50;;;8.17;65.91
24013;BME280;12220;50.194;18.948;2023-02-15T11:37:45;103255.03;;;8.23;66.03
24013;BME280;12220;50.194;18.948;2023-02-15T11:39:43;103247.68;;;8.25;65.93
24013;BME280;12220;50.194;18.948;2023-02-15T11:41:55;103251.23;;;8.30;65.71
24013;BME280;12220;50.194;18.948;2023-02-15T11:44:12;103247.55;;;8.31;65.03
24013;BME280;12220;50.194;18.948;2023-02-15T11:46:16;103236.59;;;8.34;65.20
24013;BME280;12220;50.194;18.948;2023-02-15T11:48:21;103242.84;;;8.40;65.13
24013;BME280;12220;50.194;18.948;2023-02-15T11:50:28;103231.88;;;8.41;65.19
24013;BME280;12220;50.194;18.948;2023-02-15T11:52:31;103232.77;;;8.45;64.94
24013;BME280;12220;50.194;18.948;2023-02-15T11:54:36;103233.59;;;8.48;64.90
24013;BME280;12220;50.194;18.948;2023-02-15T11:56:38;103237.17;;;8.52;64.92
24013;BME280;12220;50.194;18.948;2023-02-15T11:58:44;103230.69;;;8.56;64.78
24013;BME280;12220;50.194;18.948;2023-02-15T12:00:49;103230.64;;;8.59;64.88
24013;BME280;12220;50.194;18.948;2023-02-15T12:02:54;103220.49;;;8.64;64.72
24013;BME280;12220;50.194;18.948;2023-02-15T12:05:05;103223.16;;;8.67;64.56
24013;BME280;12220;50.194;18.948;2023-02-15T12:14:17;103211.89;;;8.83;64.42
24013;BME280;12220;50.194;18.948;2023-02-15T12:16:18;103207.20;;;8.88;64.35
24013;BME280;12220;50.194;18.948;2023-02-15T12:20:33;103206.92;;;9.00;63.44
24013;BME280;12220;50.194;18.948;2023-02-15T12:22:37;103203.15;;;9.06;63.17
24013;BME280;12220;50.194;18.948;2023-02-15T12:24:44;103201.13;;;9.13;62.01
24013;BME280;12220;50.194;18.948;2023-02-15T12:26:57;103191.00;;;9.18;61.90
24013;BME280;12220;50.194;18.948;2023-02-15T12:31:23;103198.85;;;9.32;61.57
24013;BME280;12220;50.194;18.948;2023-02-15T12:33:35;103189.59;;;9.37;61.61
24013;BME280;12220;50.194;18.948;2023-02-15T12:35:40;103173.92;;;9.44;60.55
24013;BME280;12220;50.194;18.948;2023-02-15T12:39:59;103166.38;;;9.54;60.23
24013;BME280;12220;50.194;18.948;2023-02-15T12:42:14;103175.39;;;9.57;60.38
24013;BME280;12220;50.194;18.948;2023-02-15T12:44:24;103168.02;;;9.61;60.37
24013;BME280;12220;50.194;18.948;2023-02-15T12:46:29;103164.23;;;9.65;60.43
24013;BME280;12220;50.194;18.948;2023-02-15T12:48:31;103172.44;;;9.65;60.14
24013;BME280;12220;50.194;18.948;2023-02-15T12:50:32;103162.37;;;9.67;60.35
24013;BME280;12220;50.194;18.948;2023-02-15T12:52:34;103162.33;;;9.69;60.34
24013;BME280;12220;50.194;18.948;2023-02-15T12:54:42;103160.39;;;9.72;60.05
24013;BME280;12220;50.194;18.948;2023-02-15T12:56:44;103155.79;;;9.74;59.06
24013;BME280;12220;50.194;18.948;2023-02-15T12:58:47;103082.05;;;9.37;58.93
24013;BME280;12220;50.194;18.948;2023-02-15T13:03:01;103146.27;;;9.88;59.48
24013;BME280;12220;50.194;18.948;2023-02-15T13:07:31;103147.90;;;9.95;59.07
24013;BME280;12220;50.194;18.948;2023-02-15T13:09:38;103143.27;;;9.97;59.10
24013;BME280;12220;50.194;18.948;2023-02-15T13:11:42;103141.41;;;9.99;58.93
24013;BME280;12220;50.194;18.948;2023-02-15T13:13:55;103134.91;;;10.02;59.11
24013;BME280;12220;50.194;18.948;2023-02-15T13:16:03;103137.54;;;10.06;58.91
24013;BME280;12220;50.194;18.948;2023-02-15T13:18:12;103123.80;;;10.08;58.41
24013;BME280;12220;50.194;18.948;2023-02-15T13:20:20;103121.02;;;10.09;58.49
24013;BME280;12220;50.194;18.948;2023-02-15T13:22:31;103130.06;;;10.11;58.09
24013;BME280;12220;50.194;18.948;2023-02-15T13:26:57;103120.92;;;10.12;57.68
24013;BME280;12220;50.194;18.948;2023-02-15T13:29:05;103127.09;;;10.19;57.87
24013;BME280;12220;50.194;18.948;2023-02-15T13:31:17;103117.80;;;10.25;58.14
24013;BME280;12220;50.194;18.948;2023-02-15T13:33:27;103114.02;;;10.29;57.67
24013;BME280;12220;50.194;18.948;2023-02-15T13:40:11;103111.12;;;10.35;57.52
24013;BME280;12220;50.194;18.948;2023-02-15T13:42:40;103105.64;;;10.35;57.55
24013;BME280;12220;50.194;18.948;2023-02-15T13:47:17;103102.84;;;10.37;57.59
24013;BME280;12220;50.194;18.948;2023-02-15T14:18:07;103094.10;;;10.54;56.04
24013;BME280;12220;50.194;18.948;2023-02-15T14:24:42;103084.13;;;10.51;55.67
24013;BME280;12220;50.194;18.948;2023-02-15T14:27:19;103078.66;;;10.51;55.85
24013;BME280;12220;50.194;18.948;2023-02-15T14:31:29;103087.68;;;10.55;56.02
24013;BME280;12220;50.194;18.948;2023-02-15T14:33:53;103042.91;;;10.26;55.86
24013;BME280;12220;50.194;18.948;2023-02-15T14:36:10;103082.31;;;10.52;56.08
24013;BME280;12220;50.194;18.948;2023-02-15T14:43:02;103074.98;;;10.52;56.40
24013;BME280;12220;50.194;18.948;2023-02-15T14:47:26;103066.75;;;10.52;56.21
24013;BME280;12220;50.194;18.948;2023-02-15T14:49:35;103076.78;;;10.53;56.39
24013;BME280;12220;50.194;18.948;2023-02-15T14:54:04;103074.04;;;10.53;56.62
24013;BME280;12220;50.194;18.948;2023-02-15T14:56:16;103073.98;;;10.55;56.73
24013;BME280;12220;50.194;18.948;2023-02-15T14:58:21;103172.52;;;10.58;56.73
24013;BME280;12220;50.194;18.948;2023-02-15T15:00:30;103069.23;;;10.60;56.77
24013;BME280;12220;50.194;18.948;2023-02-15T15:02:42;103068.30;;;10.61;56.82
24013;BME280;12220;50.194;18.948;2023-02-15T15:09:35;103073.98;;;10.55;56.69
24013;BME280;12220;50.194;18.948;2023-02-15T15:11:47;103073.12;;;10.53;56.66
24013;BME280;12220;50.194;18.948;2023-02-15T15:14:04;103071.45;;;10.49;56.70
24013;BME280;12220;50.194;18.948;2023-02-15T15:20:49;103069.05;;;10.38;56.96
24013;BME280;12220;50.194;18.948;2023-02-15T15:22:49;103074.63;;;10.35;57.07
24013;BME280;12220;50.194;18.948;2023-02-15T15:29:41;103069.64;;;10.18;57.23
24013;BME280;12220;50.194;18.948;2023-02-15T15:31:51;103064.37;;;10.11;57.33
24013;BME280;12220;50.194;18.948;2023-02-15T15:49:47;103049.59;;;9.56;57.98
24013;BME280;12220;50.194;18.948;2023-02-15T15:54:24;103051.83;;;9.41;58.27
24013;BME280;12220;50.194;18.948;2023-02-15T15:58:56;103054.05;;;9.27;58.51
24013;BME280;12220;50.194;18.948;2023-02-15T16:01:09;102123.98;;;3.39;58.27
24013;BME280;12220;50.194;18.948;2023-02-15T16:08:27;103053.00;;;8.98;58.99
24013;BME280;12220;50.194;18.948;2023-02-15T16:10:30;103040.43;;;8.91;59.05
24013;BME280;12220;50.194;18.948;2023-02-15T16:15:17;103045.48;;;8.72;59.34
24013;BME280;12220;50.194;18.948;2023-02-15T16:17:27;103056.66;;;8.63;59.45
24013;BME280;12220;50.194;18.948;2023-02-15T16:19:38;103058.62;;;8.56;59.58
24013;BME280;12220;50.194;18.948;2023-02-15T16:21:40;103063.35;;;8.49;59.68
24013;BME280;12220;50.194;18.948;2023-02-15T16:23:55;103052.55;;;8.42;59.67
24013;BME280;12220;50.194;18.948;2023-02-15T16:33:10;103056.13;;;8.06;59.96
24013;BME280;12220;50.194;18.948;2023-02-15T16:35:17;103070.94;;;7.94;59.99
24013;BME280;12220;50.194;18.948;2023-02-15T16:37:22;103054.81;;;7.83;60.26
24013;BME280;12220;50.194;18.948;2023-02-15T16:39:26;103058.64;;;7.75;60.56
24013;BME280;12220;50.194;18.948;2023-02-15T16:41:29;103061.40;;;7.72;60.75
24013;BME280;12220;50.194;18.948;2023-02-15T16:43:32;103066.93;;;7.68;60.82